Ana Sayfa
METAR-TAF:

METAR-TAF

Havaalanları :

Coonamble, Avustralya

Enlem: 30-59-00S, Boylam: 148-22-30E, yükseklik: 184 m

Güncel hava durumu gözlemi

Rapor saat 00:00 UTC de 49 dakika önce yapıldı.
Rüzgar güneybatıdan 3 kt
Sıcaklık 8°C
Nem 66%
Basınç 1024 hPa

METAR: YCNM 200000Z AUTO 22003KT //// // ////// 08/02 Q1024

Saat: 10:49 (00:49 UTC)


TAF: eksik

4.000'den fazla havaalanı için hava durumu gözlemleri ve tahminleri (METAR ve TAF raporları).

Kullanılabilir istasyonlar harita üzerinde sarı ve kırmızı noktalarla gösterilir.

İstasyonun adını görmek için fareyi noktanın üzerinde gezdirin.

Sonrasında hava gözlem ve tahminlerini görmek için tıklayın.

Haritayı değiştirmek için: yaklaştırmak için siyah artı işaretli yeşil düğmeye ve uzaklaştırmak için de eksi işaretli düğmeye hızla tıklayın; bitişik haritalar için yeşil okları kullanın.


METAR-TAF: